sensor_id;sensor_type;location;lat;lon;timestamp;P1;durP1;ratioP1;P2;durP2;ratioP2
12435;SDS011;6282;51.440;6.938;2023-05-08T00:01:56;9.75;;;8.07;;
12435;SDS011;6282;51.440;6.938;2023-05-08T00:04:23;9.10;;;8.20;;
12435;SDS011;6282;51.440;6.938;2023-05-08T00:06:50;9.75;;;7.32;;
12435;SDS011;6282;51.440;6.938;2023-05-08T00:09:17;8.30;;;7.47;;
12435;SDS011;6282;51.440;6.938;2023-05-08T00:11:44;10.30;;;7.70;;
12435;SDS011;6282;51.440;6.938;2023-05-08T00:14:11;9.75;;;8.60;;
12435;SDS011;6282;51.440;6.938;2023-05-08T00:16:39;8.90;;;7.72;;
12435;SDS011;6282;51.440;6.938;2023-05-08T00:19:06;10.57;;;8.95;;
12435;SDS011;6282;51.440;6.938;2023-05-08T00:21:33;10.27;;;8.57;;
12435;SDS011;6282;51.440;6.938;2023-05-08T00:24:00;8.93;;;7.78;;
12435;SDS011;6282;51.440;6.938;2023-05-08T00:26:27;9.50;;;8.52;;
12435;SDS011;6282;51.440;6.938;2023-05-08T00:28:54;8.90;;;8.10;;
12435;SDS011;6282;51.440;6.938;2023-05-08T00:31:21;12.30;;;9.75;;
12435;SDS011;6282;51.440;6.938;2023-05-08T00:33:49;9.05;;;8.15;;
12435;SDS011;6282;51.440;6.938;2023-05-08T00:36:16;11.18;;;9.13;;
12435;SDS011;6282;51.440;6.938;2023-05-08T00:38:43;9.02;;;7.97;;
12435;SDS011;6282;51.440;6.938;2023-05-08T00:41:10;9.85;;;8.85;;
12435;SDS011;6282;51.440;6.938;2023-05-08T00:43:37;13.05;;;9.20;;
12435;SDS011;6282;51.440;6.938;2023-05-08T00:46:04;12.10;;;10.13;;
12435;SDS011;6282;51.440;6.938;2023-05-08T00:48:32;10.30;;;8.77;;
12435;SDS011;6282;51.440;6.938;2023-05-08T00:51:01;13.00;;;10.60;;
12435;SDS011;6282;51.440;6.938;2023-05-08T00:53:31;11.07;;;9.10;;
12435;SDS011;6282;51.440;6.938;2023-05-08T00:56:01;10.75;;;8.65;;
12435;SDS011;6282;51.440;6.938;2023-05-08T00:58:28;9.68;;;8.68;;
12435;SDS011;6282;51.440;6.938;2023-05-08T01:00:56;11.77;;;10.38;;
12435;SDS011;6282;51.440;6.938;2023-05-08T01:03:24;10.82;;;9.25;;
12435;SDS011;6282;51.440;6.938;2023-05-08T01:05:51;10.98;;;9.52;;
12435;SDS011;6282;51.440;6.938;2023-05-08T01:08:20;11.23;;;9.80;;
12435;SDS011;6282;51.440;6.938;2023-05-08T01:10:49;10.48;;;8.68;;
12435;SDS011;6282;51.440;6.938;2023-05-08T01:13:27;11.70;;;8.68;;
12435;SDS011;6282;51.440;6.938;2023-05-08T01:16:01;10.63;;;8.98;;
12435;SDS011;6282;51.440;6.938;2023-05-08T01:18:37;11.80;;;9.45;;
12435;SDS011;6282;51.440;6.938;2023-05-08T01:21:12;9.93;;;8.88;;
12435;SDS011;6282;51.440;6.938;2023-05-08T01:23:55;11.95;;;9.43;;
12435;SDS011;6282;51.440;6.938;2023-05-08T01:26:52;11.65;;;9.65;;
12435;SDS011;6282;51.440;6.938;2023-05-08T01:29:46;11.48;;;9.77;;
12435;SDS011;6282;51.440;6.938;2023-05-08T01:32:53;11.95;;;9.93;;
12435;SDS011;6282;51.440;6.938;2023-05-08T01:35:23;10.40;;;9.30;;
12435;SDS011;6282;51.440;6.938;2023-05-08T01:37:56;10.77;;;9.68;;
12435;SDS011;6282;51.440;6.938;2023-05-08T01:40:30;12.02;;;9.80;;
12435;SDS011;6282;51.440;6.938;2023-05-08T01:43:06;10.80;;;9.57;;
12435;SDS011;6282;51.440;6.938;2023-05-08T01:45:39;14.35;;;10.80;;
12435;SDS011;6282;51.440;6.938;2023-05-08T01:48:12;10.80;;;9.65;;
12435;SDS011;6282;51.440;6.938;2023-05-08T01:50:43;11.00;;;9.93;;
12435;SDS011;6282;51.440;6.938;2023-05-08T01:53:15;10.27;;;8.95;;
12435;SDS011;6282;51.440;6.938;2023-05-08T01:55:46;11.00;;;9.75;;
12435;SDS011;6282;51.440;6.938;2023-05-08T01:58:16;11.70;;;9.95;;
12435;SDS011;6282;51.440;6.938;2023-05-08T02:00:43;10.40;;;9.30;;
12435;SDS011;6282;51.440;6.938;2023-05-08T02:03:13;12.93;;;10.02;;
12435;SDS011;6282;51.440;6.938;2023-05-08T02:05:42;11.80;;;10.27;;
12435;SDS011;6282;51.440;6.938;2023-05-08T02:08:10;10.55;;;9.25;;
12435;SDS011;6282;51.440;6.938;2023-05-08T02:10:39;11.68;;;9.75;;
12435;SDS011;6282;51.440;6.938;2023-05-08T02:13:07;11.15;;;9.88;;
12435;SDS011;6282;51.440;6.938;2023-05-08T02:15:36;12.32;;;10.57;;
12435;SDS011;6282;51.440;6.938;2023-05-08T02:18:06;11.10;;;9.27;;
12435;SDS011;6282;51.440;6.938;2023-05-08T02:20:35;10.38;;;9.27;;
12435;SDS011;6282;51.440;6.938;2023-05-08T02:23:03;11.30;;;9.82;;
12435;SDS011;6282;51.440;6.938;2023-05-08T02:25:31;11.68;;;9.93;;
12435;SDS011;6282;51.440;6.938;2023-05-08T02:27:58;12.75;;;9.82;;
12435;SDS011;6282;51.440;6.938;2023-05-08T02:30:25;13.02;;;9.70;;
12435;SDS011;6282;51.440;6.938;2023-05-08T02:32:54;11.32;;;9.65;;
12435;SDS011;6282;51.440;6.938;2023-05-08T02:35:22;12.85;;;9.73;;
12435;SDS011;6282;51.440;6.938;2023-05-08T02:37:52;11.75;;;9.98;;
12435;SDS011;6282;51.440;6.938;2023-05-08T02:40:21;14.27;;;10.45;;
12435;SDS011;6282;51.440;6.938;2023-05-08T02:42:51;10.98;;;9.80;;
12435;SDS011;6282;51.440;6.938;2023-05-08T02:45:18;13.20;;;9.50;;
12435;SDS011;6282;51.440;6.938;2023-05-08T02:47:46;10.88;;;9.73;;
12435;SDS011;6282;51.440;6.938;2023-05-08T02:50:20;11.55;;;9.80;;
12435;SDS011;6282;51.440;6.938;2023-05-08T02:52:56;14.20;;;10.43;;
12435;SDS011;6282;51.440;6.938;2023-05-08T02:55:31;11.48;;;9.90;;
12435;SDS011;6282;51.440;6.938;2023-05-08T02:58:07;9.80;;;8.68;;
12435;SDS011;6282;51.440;6.938;2023-05-08T03:00:41;12.15;;;10.10;;
12435;SDS011;6282;51.440;6.938;2023-05-08T03:03:14;10.25;;;8.82;;
12435;SDS011;6282;51.440;6.938;2023-05-08T03:05:48;11.68;;;8.93;;
12435;SDS011;6282;51.440;6.938;2023-05-08T03:08:20;11.18;;;9.05;;
12435;SDS011;6282;51.440;6.938;2023-05-08T03:10:51;12.50;;;10.20;;
12435;SDS011;6282;51.440;6.938;2023-05-08T03:13:21;12.38;;;10.32;;
12435;SDS011;6282;51.440;6.938;2023-05-08T03:15:51;12.70;;;9.18;;
12435;SDS011;6282;51.440;6.938;2023-05-08T03:18:22;13.25;;;10.18;;
12435;SDS011;6282;51.440;6.938;2023-05-08T03:20:53;10.98;;;9.85;;
12435;SDS011;6282;51.440;6.938;2023-05-08T03:23:25;11.60;;;9.82;;
12435;SDS011;6282;51.440;6.938;2023-05-08T03:25:53;11.95;;;9.25;;
12435;SDS011;6282;51.440;6.938;2023-05-08T03:28:22;11.60;;;9.68;;
12435;SDS011;6282;51.440;6.938;2023-05-08T03:30:50;11.43;;;9.25;;
12435;SDS011;6282;51.440;6.938;2023-05-08T03:33:18;10.25;;;8.65;;
12435;SDS011;6282;51.440;6.938;2023-05-08T03:35:46;12.32;;;9.65;;
12435;SDS011;6282;51.440;6.938;2023-05-08T03:38:14;11.10;;;9.20;;
12435;SDS011;6282;51.440;6.938;2023-05-08T03:40:42;13.25;;;10.32;;
12435;SDS011;6282;51.440;6.938;2023-05-08T03:43:10;10.43;;;9.32;;
12435;SDS011;6282;51.440;6.938;2023-05-08T03:45:38;11.02;;;9.65;;
12435;SDS011;6282;51.440;6.938;2023-05-08T03:48:06;11.05;;;8.88;;
12435;SDS011;6282;51.440;6.938;2023-05-08T03:50:34;11.90;;;9.60;;
12435;SDS011;6282;51.440;6.938;2023-05-08T03:53:03;10.95;;;9.38;;
12435;SDS011;6282;51.440;6.938;2023-05-08T03:55:30;10.90;;;9.80;;
12435;SDS011;6282;51.440;6.938;2023-05-08T03:58:00;12.13;;;9.48;;
12435;SDS011;6282;51.440;6.938;2023-05-08T04:00:35;11.60;;;9.18;;
12435;SDS011;6282;51.440;6.938;2023-05-08T04:03:12;12.93;;;10.13;;
12435;SDS011;6282;51.440;6.938;2023-05-08T04:05:49;11.82;;;10.23;;
12435;SDS011;6282;51.440;6.938;2023-05-08T04:08:18;11.10;;;9.48;;
12435;SDS011;6282;51.440;6.938;2023-05-08T04:10:48;11.88;;;9.25;;
12435;SDS011;6282;51.440;6.938;2023-05-08T04:13:24;11.15;;;9.85;;
12435;SDS011;6282;51.440;6.938;2023-05-08T04:15:53;11.27;;;9.98;;
12435;SDS011;6282;51.440;6.938;2023-05-08T04:18:30;10.80;;;9.20;;
12435;SDS011;6282;51.440;6.938;2023-05-08T04:21:01;11.77;;;9.52;;
12435;SDS011;6282;51.440;6.938;2023-05-08T04:23:31;10.27;;;9.18;;
12435;SDS011;6282;51.440;6.938;2023-05-08T04:26:00;10.40;;;9.02;;
12435;SDS011;6282;51.440;6.938;2023-05-08T04:28:30;12.07;;;8.98;;
12435;SDS011;6282;51.440;6.938;2023-05-08T04:30:57;10.48;;;8.98;;
12435;SDS011;6282;51.440;6.938;2023-05-08T04:33:24;11.90;;;10.02;;
12435;SDS011;6282;51.440;6.938;2023-05-08T04:35:52;10.68;;;9.20;;
12435;SDS011;6282;51.440;6.938;2023-05-08T04:38:19;11.05;;;9.10;;
12435;SDS011;6282;51.440;6.938;2023-05-08T04:40:46;10.02;;;8.95;;
12435;SDS011;6282;51.440;6.938;2023-05-08T04:43:13;11.38;;;9.45;;
12435;SDS011;6282;51.440;6.938;2023-05-08T04:45:41;10.25;;;8.40;;
12435;SDS011;6282;51.440;6.938;2023-05-08T04:48:08;9.65;;;8.32;;
12435;SDS011;6282;51.440;6.938;2023-05-08T04:50:35;10.45;;;8.52;;
12435;SDS011;6282;51.440;6.938;2023-05-08T04:53:02;10.15;;;8.25;;
12435;SDS011;6282;51.440;6.938;2023-05-08T04:55:28;9.77;;;8.45;;
12435;SDS011;6282;51.440;6.938;2023-05-08T04:57:55;11.05;;;9.43;;
12435;SDS011;6282;51.440;6.938;2023-05-08T05:00:22;14.02;;;9.82;;
12435;SDS011;6282;51.440;6.938;2023-05-08T05:02:50;12.20;;;10.25;;
12435;SDS011;6282;51.440;6.938;2023-05-08T05:05:17;11.77;;;9.88;;
12435;SDS011;6282;51.440;6.938;2023-05-08T05:07:44;13.05;;;9.65;;
12435;SDS011;6282;51.440;6.938;2023-05-08T05:10:11;10.95;;;9.23;;
12435;SDS011;6282;51.440;6.938;2023-05-08T05:12:38;13.10;;;10.40;;
12435;SDS011;6282;51.440;6.938;2023-05-08T05:15:05;13.02;;;9.13;;
12435;SDS011;6282;51.440;6.938;2023-05-08T05:17:32;10.18;;;9.05;;
12435;SDS011;6282;51.440;6.938;2023-05-08T05:20:00;12.13;;;10.05;;
12435;SDS011;6282;51.440;6.938;2023-05-08T05:22:27;14.73;;;10.95;;
12435;SDS011;6282;51.440;6.938;2023-05-08T05:24:54;15.13;;;10.50;;
12435;SDS011;6282;51.440;6.938;2023-05-08T05:27:21;12.98;;;11.43;;
12435;SDS011;6282;51.440;6.938;2023-05-08T05:29:48;14.43;;;10.85;;
12435;SDS011;6282;51.440;6.938;2023-05-08T05:32:15;14.75;;;10.73;;
12435;SDS011;6282;51.440;6.938;2023-05-08T05:34:42;12.18;;;10.15;;
12435;SDS011;6282;51.440;6.938;2023-05-08T05:37:10;15.13;;;10.40;;
12435;SDS011;6282;51.440;6.938;2023-05-08T05:39:37;11.23;;;9.55;;
12435;SDS011;6282;51.440;6.938;2023-05-08T05:42:04;14.07;;;10.98;;
12435;SDS011;6282;51.440;6.938;2023-05-08T05:44:31;11.20;;;9.07;;
12435;SDS011;6282;51.440;6.938;2023-05-08T05:46:57;9.63;;;8.10;;
12435;SDS011;6282;51.440;6.938;2023-05-08T05:49:24;8.50;;;6.60;;
12435;SDS011;6282;51.440;6.938;2023-05-08T05:51:51;7.45;;;6.38;;
12435;SDS011;6282;51.440;6.938;2023-05-08T05:54:19;6.65;;;5.68;;
12435;SDS011;6282;51.440;6.938;2023-05-08T05:56:46;6.00;;;5.10;;
12435;SDS011;6282;51.440;6.938;2023-05-08T05:59:13;5.60;;;5.03;;
12435;SDS011;6282;51.440;6.938;2023-05-08T06:01:40;5.40;;;4.90;;
12435;SDS011;6282;51.440;6.938;2023-05-08T06:04:07;6.07;;;5.20;;
12435;SDS011;6282;51.440;6.938;2023-05-08T06:06:34;5.65;;;4.82;;
12435;SDS011;6282;51.440;6.938;2023-05-08T06:09:00;4.95;;;4.45;;
12435;SDS011;6282;51.440;6.938;2023-05-08T06:11:29;5.32;;;4.78;;
12435;SDS011;6282;51.440;6.938;2023-05-08T06:13:56;5.22;;;4.72;;
12435;SDS011;6282;51.440;6.938;2023-05-08T06:16:23;5.05;;;4.55;;
12435;SDS011;6282;51.440;6.938;2023-05-08T06:18:50;5.47;;;4.88;;
12435;SDS011;6282;51.440;6.938;2023-05-08T06:21:17;5.43;;;4.57;;
12435;SDS011;6282;51.440;6.938;2023-05-08T06:23:43;4.93;;;4.43;;
12435;SDS011;6282;51.440;6.938;2023-05-08T06:26:10;4.85;;;4.35;;
12435;SDS011;6282;51.440;6.938;2023-05-08T06:28:38;5.07;;;4.30;;
12435;SDS011;6282;51.440;6.938;2023-05-08T06:31:05;5.00;;;4.50;;
12435;SDS011;6282;51.440;6.938;2023-05-08T06:33:32;5.00;;;4.07;;
12435;SDS011;6282;51.440;6.938;2023-05-08T06:35:59;5.40;;;4.50;;
12435;SDS011;6282;51.440;6.938;2023-05-08T06:38:25;5.35;;;4.20;;
12435;SDS011;6282;51.440;6.938;2023-05-08T06:40:52;4.93;;;4.43;;
12435;SDS011;6282;51.440;6.938;2023-05-08T06:43:19;4.93;;;4.38;;
12435;SDS011;6282;51.440;6.938;2023-05-08T06:45:48;4.85;;;3.92;;
12435;SDS011;6282;51.440;6.938;2023-05-08T06:48:17;5.65;;;4.50;;
12435;SDS011;6282;51.440;6.938;2023-05-08T06:50:44;6.90;;;4.85;;
12435;SDS011;6282;51.440;6.938;2023-05-08T06:53:12;4.85;;;4.18;;
12435;SDS011;6282;51.440;6.938;2023-05-08T06:55:41;5.03;;;4.57;;
12435;SDS011;6282;51.440;6.938;2023-05-08T06:58:08;7.78;;;4.80;;
12435;SDS011;6282;51.440;6.938;2023-05-08T07:00:35;4.80;;;4.40;;
12435;SDS011;6282;51.440;6.938;2023-05-08T07:03:03;5.03;;;4.50;;
12435;SDS011;6282;51.440;6.938;2023-05-08T07:05:30;4.75;;;4.13;;
12435;SDS011;6282;51.440;6.938;2023-05-08T07:07:57;4.30;;;3.90;;
12435;SDS011;6282;51.440;6.938;2023-05-08T07:10:24;5.72;;;4.43;;
12435;SDS011;6282;51.440;6.938;2023-05-08T07:12:51;4.88;;;4.47;;
12435;SDS011;6282;51.440;6.938;2023-05-08T07:15:18;5.90;;;3.95;;
12435;SDS011;6282;51.440;6.938;2023-05-08T07:17:46;4.57;;;3.65;;
12435;SDS011;6282;51.440;6.938;2023-05-08T07:20:14;3.97;;;3.67;;
12435;SDS011;6282;51.440;6.938;2023-05-08T07:22:41;3.10;;;2.80;;
12435;SDS011;6282;51.440;6.938;2023-05-08T07:25:08;2.97;;;2.75;;
12435;SDS011;6282;51.440;6.938;2023-05-08T07:27:36;2.50;;;2.30;;
12435;SDS011;6282;51.440;6.938;2023-05-08T07:30:03;2.80;;;2.60;;
12435;SDS011;6282;51.440;6.938;2023-05-08T07:32:30;2.60;;;2.40;;
12435;SDS011;6282;51.440;6.938;2023-05-08T07:34:57;4.32;;;2.60;;
12435;SDS011;6282;51.440;6.938;2023-05-08T07:37:28;3.17;;;2.95;;
12435;SDS011;6282;51.440;6.938;2023-05-08T07:39:54;2.72;;;2.50;;
12435;SDS011;6282;51.440;6.938;2023-05-08T07:42:21;3.25;;;2.97;;
12435;SDS011;6282;51.440;6.938;2023-05-08T07:44:48;3.33;;;3.03;;
12435;SDS011;6282;51.440;6.938;2023-05-08T07:47:15;4.72;;;3.60;;
12435;SDS011;6282;51.440;6.938;2023-05-08T07:49:42;4.82;;;3.65;;
12435;SDS011;6282;51.440;6.938;2023-05-08T07:52:09;3.72;;;3.13;;
12435;SDS011;6282;51.440;6.938;2023-05-08T07:54:37;5.72;;;3.65;;
12435;SDS011;6282;51.440;6.938;2023-05-08T07:57:03;4.38;;;3.58;;
12435;SDS011;6282;51.440;6.938;2023-05-08T07:59:30;5.20;;;4.03;;
12435;SDS011;6282;51.440;6.938;2023-05-08T08:01:57;4.07;;;3.67;;
12435;SDS011;6282;51.440;6.938;2023-05-08T08:04:24;3.70;;;3.40;;
12435;SDS011;6282;51.440;6.938;2023-05-08T08:06:51;4.10;;;3.35;;
12435;SDS011;6282;51.440;6.938;2023-05-08T08:09:18;4.05;;;3.65;;
12435;SDS011;6282;51.440;6.938;2023-05-08T08:11:46;3.90;;;3.60;;
12435;SDS011;6282;51.440;6.938;2023-05-08T08:14:13;4.03;;;3.47;;
12435;SDS011;6282;51.440;6.938;2023-05-08T08:16:39;3.20;;;2.90;;
12435;SDS011;6282;51.440;6.938;2023-05-08T08:19:07;3.88;;;3.47;;
12435;SDS011;6282;51.440;6.938;2023-05-08T08:21:34;3.22;;;2.92;;
12435;SDS011;6282;51.440;6.938;2023-05-08T08:24:01;3.55;;;3.00;;
12435;SDS011;6282;51.440;6.938;2023-05-08T08:26:28;3.13;;;2.90;;
12435;SDS011;6282;51.440;6.938;2023-05-08T08:28:56;4.90;;;3.40;;
12435;SDS011;6282;51.440;6.938;2023-05-08T08:31:23;5.28;;;3.17;;
12435;SDS011;6282;51.440;6.938;2023-05-08T08:33:50;4.43;;;3.75;;
12435;SDS011;6282;51.440;6.938;2023-05-08T08:36:17;4.07;;;3.58;;
12435;SDS011;6282;51.440;6.938;2023-05-08T08:38:43;4.10;;;3.38;;
12435;SDS011;6282;51.440;6.938;2023-05-08T08:41:12;3.65;;;3.28;;
12435;SDS011;6282;51.440;6.938;2023-05-08T08:43:38;3.85;;;3.42;;
12435;SDS011;6282;51.440;6.938;2023-05-08T08:46:10;4.05;;;3.65;;
12435;SDS011;6282;51.440;6.938;2023-05-08T08:48:39;3.78;;;3.35;;
12435;SDS011;6282;51.440;6.938;2023-05-08T08:51:11;4.15;;;3.08;;
12435;SDS011;6282;51.440;6.938;2023-05-08T08:53:44;3.25;;;2.90;;
12435;SDS011;6282;51.440;6.938;2023-05-08T08:56:14;3.00;;;2.80;;
12435;SDS011;6282;51.440;6.938;2023-05-08T08:58:43;2.83;;;2.55;;
12435;SDS011;6282;51.440;6.938;2023-05-08T09:01:16;2.95;;;2.67;;
12435;SDS011;6282;51.440;6.938;2023-05-08T09:03:44;2.92;;;2.72;;
12435;SDS011;6282;51.440;6.938;2023-05-08T09:06:11;3.10;;;2.80;;
12435;SDS011;6282;51.440;6.938;2023-05-08T09:08:39;2.78;;;2.58;;
12435;SDS011;6282;51.440;6.938;2023-05-08T09:11:06;2.50;;;2.35;;
12435;SDS011;6282;51.440;6.938;2023-05-08T09:13:33;2.40;;;1.95;;
12435;SDS011;6282;51.440;6.938;2023-05-08T09:16:00;2.13;;;2.00;;
12435;SDS011;6282;51.440;6.938;2023-05-08T09:18:28;1.67;;;1.58;;
12435;SDS011;6282;51.440;6.938;2023-05-08T09:20:55;1.48;;;1.38;;
12435;SDS011;6282;51.440;6.938;2023-05-08T09:23:24;1.40;;;1.30;;
12435;SDS011;6282;51.440;6.938;2023-05-08T09:25:51;1.83;;;1.73;;
12435;SDS011;6282;51.440;6.938;2023-05-08T09:28:18;2.53;;;1.70;;
12435;SDS011;6282;51.440;6.938;2023-05-08T09:30:49;2.08;;;1.80;;
12435;SDS011;6282;51.440;6.938;2023-05-08T09:33:17;1.80;;;1.70;;
12435;SDS011;6282;51.440;6.938;2023-05-08T09:35:46;3.50;;;2.10;;
12435;SDS011;6282;51.440;6.938;2023-05-08T09:41:08;2.45;;;2.25;;
12435;SDS011;6282;51.440;6.938;2023-05-08T09:43:36;2.60;;;2.40;;
12435;SDS011;6282;51.440;6.938;2023-05-08T09:46:19;2.30;;;2.10;;
12435;SDS011;6282;51.440;6.938;2023-05-08T09:48:47;2.25;;;2.05;;
12435;SDS011;6282;51.440;6.938;2023-05-08T09:51:15;5.03;;;2.13;;
12435;SDS011;6282;51.440;6.938;2023-05-08T09:53:42;2.17;;;1.88;;
12435;SDS011;6282;51.440;6.938;2023-05-08T09:56:09;1.80;;;1.70;;
12435;SDS011;6282;51.440;6.938;2023-05-08T09:58:36;3.97;;;2.45;;
12435;SDS011;6282;51.440;6.938;2023-05-08T10:01:04;1.50;;;1.42;;
12435;SDS011;6282;51.440;6.938;2023-05-08T10:03:46;1.65;;;1.55;;
12435;SDS011;6282;51.440;6.938;2023-05-08T10:06:15;2.03;;;1.52;;
12435;SDS011;6282;51.440;6.938;2023-05-08T10:08:42;1.52;;;1.42;;
12435;SDS011;6282;51.440;6.938;2023-05-08T10:11:12;1.52;;;1.40;;
12435;SDS011;6282;51.440;6.938;2023-05-08T10:13:40;2.17;;;1.90;;
12435;SDS011;6282;51.440;6.938;2023-05-08T10:16:07;2.22;;;2.03;;
12435;SDS011;6282;51.440;6.938;2023-05-08T10:18:39;2.30;;;2.10;;
12435;SDS011;6282;51.440;6.938;2023-05-08T10:21:13;1.88;;;1.77;;
12435;SDS011;6282;51.440;6.938;2023-05-08T10:23:46;2.00;;;1.90;;
12435;SDS011;6282;51.440;6.938;2023-05-08T10:26:15;2.38;;;2.17;;
12435;SDS011;6282;51.440;6.938;2023-05-08T10:28:48;2.30;;;2.10;;
12435;SDS011;6282;51.440;6.938;2023-05-08T10:31:20;1.98;;;1.88;;
12435;SDS011;6282;51.440;6.938;2023-05-08T10:33:50;2.20;;;2.00;;
12435;SDS011;6282;51.440;6.938;2023-05-08T10:36:23;2.35;;;2.17;;
12435;SDS011;6282;51.440;6.938;2023-05-08T10:38:52;2.13;;;1.90;;
12435;SDS011;6282;51.440;6.938;2023-05-08T10:41:19;2.63;;;2.40;;
12435;SDS011;6282;51.440;6.938;2023-05-08T10:43:47;2.30;;;2.10;;
12435;SDS011;6282;51.440;6.938;2023-05-08T10:46:15;2.70;;;2.50;;
12435;SDS011;6282;51.440;6.938;2023-05-08T10:48:53;2.58;;;2.38;;
12435;SDS011;6282;51.440;6.938;2023-05-08T10:51:32;2.90;;;2.60;;
12435;SDS011;6282;51.440;6.938;2023-05-08T10:54:07;2.60;;;2.40;;
12435;SDS011;6282;51.440;6.938;2023-05-08T10:56:37;2.63;;;2.42;;
12435;SDS011;6282;51.440;6.938;2023-05-08T10:59:04;2.80;;;2.60;;
12435;SDS011;6282;51.440;6.938;2023-05-08T11:01:31;2.70;;;2.50;;
12435;SDS011;6282;51.440;6.938;2023-05-08T11:03:58;2.60;;;2.40;;
12435;SDS011;6282;51.440;6.938;2023-05-08T11:06:42;7.50;;;2.88;;
12435;SDS011;6282;51.440;6.938;2023-05-08T11:09:13;3.60;;;3.17;;
12435;SDS011;6282;51.440;6.938;2023-05-08T11:11:47;3.00;;;2.70;;
12435;SDS011;6282;51.440;6.938;2023-05-08T11:14:21;2.80;;;2.60;;
12435;SDS011;6282;51.440;6.938;2023-05-08T11:17:04;2.90;;;2.70;;
12435;SDS011;6282;51.440;6.938;2023-05-08T11:19:32;3.17;;;2.83;;
12435;SDS011;6282;51.440;6.938;2023-05-08T11:22:20;3.08;;;2.78;;
12435;SDS011;6282;51.440;6.938;2023-05-08T11:24:55;3.17;;;2.80;;
12435;SDS011;6282;51.440;6.938;2023-05-08T11:27:37;3.00;;;2.70;;
12435;SDS011;6282;51.440;6.938;2023-05-08T11:30:22;3.08;;;2.78;;
12435;SDS011;6282;51.440;6.938;2023-05-08T11:33:10;2.78;;;2.58;;
12435;SDS011;6282;51.440;6.938;2023-05-08T11:35:42;2.97;;;2.72;;
12435;SDS011;6282;51.440;6.938;2023-05-08T11:38:16;3.35;;;2.72;;
12435;SDS011;6282;51.440;6.938;2023-05-08T11:40:45;2.90;;;2.65;;
12435;SDS011;6282;51.440;6.938;2023-05-08T11:43:26;3.00;;;2.70;;
12435;SDS011;6282;51.440;6.938;2023-05-08T11:46:13;3.10;;;2.83;;
12435;SDS011;6282;51.440;6.938;2023-05-08T11:48:41;3.47;;;2.40;;
12435;SDS011;6282;51.440;6.938;2023-05-08T11:51:09;2.53;;;2.33;;
12435;SDS011;6282;51.440;6.938;2023-05-08T11:53:38;3.50;;;2.47;;
12435;SDS011;6282;51.440;6.938;2023-05-08T11:56:06;2.47;;;2.28;;
12435;SDS011;6282;51.440;6.938;2023-05-08T11:58:33;3.45;;;2.22;;
12435;SDS011;6282;51.440;6.938;2023-05-08T12:01:01;4.25;;;2.95;;
12435;SDS011;6282;51.440;6.938;2023-05-08T12:03:28;2.75;;;2.55;;
12435;SDS011;6282;51.440;6.938;2023-05-08T12:05:57;2.55;;;2.35;;
12435;SDS011;6282;51.440;6.938;2023-05-08T12:08:24;1.80;;;1.70;;
12435;SDS011;6282;51.440;6.938;2023-05-08T12:10:54;2.03;;;1.92;;
12435;SDS011;6282;51.440;6.938;2023-05-08T12:13:22;2.42;;;2.20;;
12435;SDS011;6282;51.440;6.938;2023-05-08T12:15:50;1.90;;;1.80;;
12435;SDS011;6282;51.440;6.938;2023-05-08T12:18:19;2.13;;;1.92;;
12435;SDS011;6282;51.440;6.938;2023-05-08T12:20:49;1.70;;;1.60;;
12435;SDS011;6282;51.440;6.938;2023-05-08T12:23:17;1.98;;;1.83;;
12435;SDS011;6282;51.440;6.938;2023-05-08T12:25:45;2.55;;;2.35;;
12435;SDS011;6282;51.440;6.938;2023-05-08T12:28:13;1.88;;;1.77;;
12435;SDS011;6282;51.440;6.938;2023-05-08T12:30:42;1.63;;;1.52;;
12435;SDS011;6282;51.440;6.938;2023-05-08T12:33:11;2.75;;;1.20;;
12435;SDS011;6282;51.440;6.938;2023-05-08T12:35:39;1.50;;;1.40;;
12435;SDS011;6282;51.440;6.938;2023-05-08T12:38:07;1.55;;;1.45;;
12435;SDS011;6282;51.440;6.938;2023-05-08T12:40:35;1.80;;;1.70;;
12435;SDS011;6282;51.440;6.938;2023-05-08T12:43:06;1.40;;;1.30;;
12435;SDS011;6282;51.440;6.938;2023-05-08T12:45:36;1.80;;;1.70;;
12435;SDS011;6282;51.440;6.938;2023-05-08T12:48:04;2.78;;;2.00;;
12435;SDS011;6282;51.440;6.938;2023-05-08T12:50:33;1.60;;;1.42;;
12435;SDS011;6282;51.440;6.938;2023-05-08T12:53:01;2.00;;;1.80;;
12435;SDS011;6282;51.440;6.938;2023-05-08T12:55:30;1.90;;;1.80;;
12435;SDS011;6282;51.440;6.938;2023-05-08T12:58:00;1.73;;;1.63;;
12435;SDS011;6282;51.440;6.938;2023-05-08T13:00:36;2.17;;;1.85;;
12435;SDS011;6282;51.440;6.938;2023-05-08T13:03:04;2.15;;;1.88;;
12435;SDS011;6282;51.440;6.938;2023-05-08T13:05:32;2.33;;;1.80;;
12435;SDS011;6282;51.440;6.938;2023-05-08T13:08:00;1.80;;;1.70;;
12435;SDS011;6282;51.440;6.938;2023-05-08T13:10:47;1.80;;;1.70;;
12435;SDS011;6282;51.440;6.938;2023-05-08T13:13:15;1.67;;;1.58;;
12435;SDS011;6282;51.440;6.938;2023-05-08T13:15:45;1.80;;;1.70;;
12435;SDS011;6282;51.440;6.938;2023-05-08T13:18:13;2.28;;;1.80;;
12435;SDS011;6282;51.440;6.938;2023-05-08T13:20:40;2.25;;;2.05;;
12435;SDS011;6282;51.440;6.938;2023-05-08T13:23:08;1.77;;;1.67;;
12435;SDS011;6282;51.440;6.938;2023-05-08T13:25:36;2.20;;;1.90;;
12435;SDS011;6282;51.440;6.938;2023-05-08T13:28:04;1.90;;;1.80;;
12435;SDS011;6282;51.440;6.938;2023-05-08T13:30:32;2.40;;;2.05;;
12435;SDS011;6282;51.440;6.938;2023-05-08T13:33:01;1.90;;;1.73;;
12435;SDS011;6282;51.440;6.938;2023-05-08T13:35:28;2.20;;;2.00;;
12435;SDS011;6282;51.440;6.938;2023-05-08T13:37:56;2.20;;;2.00;;
12435;SDS011;6282;51.440;6.938;2023-05-08T13:40:23;2.08;;;1.98;;
12435;SDS011;6282;51.440;6.938;2023-05-08T13:42:50;2.58;;;1.98;;
12435;SDS011;6282;51.440;6.938;2023-05-08T13:45:18;3.17;;;1.67;;
12435;SDS011;6282;51.440;6.938;2023-05-08T13:47:46;2.00;;;1.90;;
12435;SDS011;6282;51.440;6.938;2023-05-08T13:50:16;2.75;;;1.92;;
12435;SDS011;6282;51.440;6.938;2023-05-08T13:52:43;1.88;;;1.67;;
12435;SDS011;6282;51.440;6.938;2023-05-08T13:55:11;2.15;;;1.88;;
12435;SDS011;6282;51.440;6.938;2023-05-08T13:57:38;1.42;;;1.35;;
12435;SDS011;6282;51.440;6.938;2023-05-08T14:00:06;1.70;;;1.60;;
12435;SDS011;6282;51.440;6.938;2023-05-08T14:02:34;1.75;;;1.65;;
12435;SDS011;6282;51.440;6.938;2023-05-08T14:05:02;1.50;;;1.40;;
12435;SDS011;6282;51.440;6.938;2023-05-08T14:07:32;1.70;;;1.60;;
12435;SDS011;6282;51.440;6.938;2023-05-08T14:09:59;1.58;;;1.48;;
12435;SDS011;6282;51.440;6.938;2023-05-08T14:12:27;1.73;;;1.63;;
12435;SDS011;6282;51.440;6.938;2023-05-08T14:14:54;1.70;;;1.60;;
12435;SDS011;6282;51.440;6.938;2023-05-08T14:17:21;1.60;;;1.50;;
12435;SDS011;6282;51.440;6.938;2023-05-08T14:19:47;2.08;;;1.88;;
12435;SDS011;6282;51.440;6.938;2023-05-08T14:22:15;1.63;;;1.40;;
12435;SDS011;6282;51.440;6.938;2023-05-08T14:24:44;1.58;;;1.48;;
12435;SDS011;6282;51.440;6.938;2023-05-08T14:27:11;2.00;;;1.73;;
12435;SDS011;6282;51.440;6.938;2023-05-08T14:29:38;2.03;;;1.92;;
12435;SDS011;6282;51.440;6.938;2023-05-08T14:32:05;1.80;;;1.70;;
12435;SDS011;6282;51.440;6.938;2023-05-08T14:34:33;1.70;;;1.60;;
12435;SDS011;6282;51.440;6.938;2023-05-08T14:37:00;1.67;;;1.58;;
12435;SDS011;6282;51.440;6.938;2023-05-08T14:39:27;1.70;;;1.60;;
12435;SDS011;6282;51.440;6.938;2023-05-08T14:41:55;1.63;;;1.52;;
12435;SDS011;6282;51.440;6.938;2023-05-08T14:44:23;2.17;;;1.50;;
12435;SDS011;6282;51.440;6.938;2023-05-08T14:46:50;1.35;;;1.25;;
12435;SDS011;6282;51.440;6.938;2023-05-08T14:49:16;1.70;;;1.60;;
12435;SDS011;6282;51.440;6.938;2023-05-08T14:51:43;1.80;;;1.70;;
12435;SDS011;6282;51.440;6.938;2023-05-08T14:54:10;1.75;;;1.40;;
12435;SDS011;6282;51.440;6.938;2023-05-08T14:56:37;1.90;;;1.80;;
12435;SDS011;6282;51.440;6.938;2023-05-08T14:59:05;2.10;;;1.80;;
12435;SDS011;6282;51.440;6.938;2023-05-08T15:01:32;2.22;;;1.85;;
12435;SDS011;6282;51.440;6.938;2023-05-08T15:03:59;1.42;;;1.33;;
12435;SDS011;6282;51.440;6.938;2023-05-08T15:06:26;1.50;;;1.40;;
12435;SDS011;6282;51.440;6.938;2023-05-08T15:08:54;1.70;;;1.60;;
12435;SDS011;6282;51.440;6.938;2023-05-08T15:11:21;2.47;;;1.77;;